UAE238K KBOS-OMDB
Flight info
| Callsign | UAE238K |
|---|---|
| Flight time | N/A |
| Altitude | 31000 |
| Route | CELTK7 CELTK DCT FRILL DCT WHALE/M085F310 N23A CARAC DCT JEBBY DCT 44N050W/M085F330 44N040W 44N030W 4330N02000W DCT ARMED/N0491F330 DCT BARDI/N0486F340 M191 DIPOL M871 NVS/N0485F350 DCT NANDO/N0487F340 T257 LASPO/N0485F350 DCT LUXUR UM134 ANB UA411 MORJA DCT SONAK DCT DINUX DCT BONAR M980 LOSUL/N0483F370 M855 MMA P751 DASUM Y234 FYM M872 BDB Y214 RAPMA/N0485F390 DCT KUVSO DCT KATIT DCT PEKEM M628 RIGIL G783 ELUDA/N0501F350 G783 ASPED Q308 KIPOK/N0506F340 Q568 IMPED |
| Aircraft | B77W/H-SDE1E2E3FGHIJ2J3J4J5M1RWXY/LB1D1 |
Departure
| Time | 2026-05-08 03:30 |
|---|---|
| Airport | Boston Logan International Airport (KBOS) |
Arrival
| Time | N/A |
|---|---|
| Airport | Dubai International Airport (OMDB) |
| Time | Latitude | Longitude | Altitude | Speed | Heading |
|---|---|---|---|---|---|
| 2026-05-08 03:02 | 42.37092 | -71.02150 | 30 ft | 0 kts | 148° |
| 2026-05-08 03:19 | 42.37106 | -71.02161 | 30 ft | 4 kts | 140° |
| 2026-05-08 03:19 | 42.37125 | -71.02187 | 29 ft | 4 kts | 125° |
| 2026-05-08 03:19 | 42.37138 | -71.02218 | 28 ft | 4 kts | 110° |
| 2026-05-08 03:19 | 42.37144 | -71.02253 | 28 ft | 4 kts | 92° |
| 2026-05-08 03:20 | 42.37143 | -71.02281 | 28 ft | 3 kts | 78° |
| 2026-05-08 03:20 | 42.37140 | -71.02317 | 29 ft | 4 kts | 98° |
| 2026-05-08 03:20 | 42.37148 | -71.02350 | 28 ft | 4 kts | 122° |
| 2026-05-08 03:20 | 42.37164 | -71.02378 | 27 ft | 4 kts | 139° |
| 2026-05-08 03:21 | 42.37186 | -71.02400 | 28 ft | 4 kts | 143° |
| 2026-05-08 03:21 | 42.37197 | -71.02413 | 28 ft | 0 kts | 134° |
| 2026-05-08 03:23 | 42.37197 | -71.02412 | 28 ft | 1 kts | 134° |
| 2026-05-08 03:23 | 42.37159 | -71.02353 | 30 ft | 11 kts | 124° |
| 2026-05-08 03:23 | 42.37160 | -71.02243 | 30 ft | 13 kts | 56° |
| 2026-05-08 03:23 | 42.37227 | -71.02139 | 30 ft | 16 kts | 62° |
| 2026-05-08 03:24 | 42.37205 | -71.01923 | 30 ft | 28 kts | 117° |
| 2026-05-08 03:24 | 42.37096 | -71.01699 | 30 ft | 28 kts | 128° |
| 2026-05-08 03:24 | 42.36962 | -71.01503 | 30 ft | 28 kts | 133° |
| 2026-05-08 03:24 | 42.36823 | -71.01314 | 30 ft | 28 kts | 135° |
| 2026-05-08 03:25 | 42.36649 | -71.01268 | 30 ft | 19 kts | 195° |
| 2026-05-08 03:25 | 42.36590 | -71.01253 | 30 ft | 1 kts | 142° |
| 2026-05-08 03:25 | 42.36563 | -71.01196 | 30 ft | 17 kts | 115° |
| 2026-05-08 03:25 | 42.36495 | -71.00981 | 30 ft | 21 kts | 120° |
| 2026-05-08 03:26 | 42.36365 | -71.00969 | 30 ft | 20 kts | 197° |
| 2026-05-08 03:26 | 42.36231 | -71.00997 | 30 ft | 20 kts | 148° |
| 2026-05-08 03:26 | 42.36159 | -71.00836 | 30 ft | 22 kts | 113° |
| 2026-05-08 03:26 | 42.36092 | -71.00621 | 30 ft | 25 kts | 112° |
| 2026-05-08 03:27 | 42.36039 | -71.00396 | 30 ft | 25 kts | 107° |
| 2026-05-08 03:27 | 42.35976 | -71.00152 | 30 ft | 35 kts | 114° |
| 2026-05-08 03:27 | 42.35815 | -70.99894 | 30 ft | 35 kts | 135° |
| 2026-05-08 03:27 | 42.35647 | -70.99670 | 30 ft | 33 kts | 135° |
| 2026-05-08 03:28 | 42.35508 | -70.99481 | 30 ft | 22 kts | 125° |
| 2026-05-08 03:28 | 42.35496 | -70.99401 | 30 ft | 0 kts | 83° |
| 2026-05-08 03:29 | 42.35497 | -70.99389 | 30 ft | 7 kts | 83° |
| 2026-05-08 03:29 | 42.35552 | -70.99308 | 30 ft | 15 kts | 352° |
| 2026-05-08 03:29 | 42.35600 | -70.99349 | 30 ft | 0 kts | 316° |
| 2026-05-08 03:30 | 42.36343 | -71.00342 | 29 ft | 151 kts | 315° |
| 2026-05-08 03:30 | 42.38183 | -71.02780 | 930 ft | 191 kts | 314° |
| 2026-05-08 03:31 | 42.39973 | -71.05337 | 2280 ft | 189 kts | 301° |
| 2026-05-08 03:31 | 42.41055 | -71.08977 | 2588 ft | 232 kts | 268° |
| 2026-05-08 03:32 | 42.40504 | -71.11092 | 3043 ft | 248 kts | 240° |
| 2026-05-08 03:32 | 42.39546 | -71.13065 | 3635 ft | 256 kts | 239° |
| 2026-05-08 03:32 | 42.38534 | -71.15067 | 4415 ft | 259 kts | 238° |
| 2026-05-08 03:32 | 42.37494 | -71.17076 | 5186 ft | 262 kts | 238° |
| 2026-05-08 03:33 | 42.36330 | -71.18970 | 5887 ft | 268 kts | 221° |
| 2026-05-08 03:33 | 42.34585 | -71.19961 | 6500 ft | 283 kts | 188° |
| 2026-05-08 03:33 | 42.32649 | -71.19587 | 7181 ft | 289 kts | 162° |
| 2026-05-08 03:33 | 42.30760 | -71.18613 | 7809 ft | 293 kts | 162° |
| 2026-05-08 03:34 | 42.28841 | -71.17650 | 8531 ft | 295 kts | 163° |
| 2026-05-08 03:34 | 42.26911 | -71.16695 | 9287 ft | 296 kts | 163° |
| 2026-05-08 03:34 | 42.25026 | -71.15555 | 9877 ft | 302 kts | 147° |
| 2026-05-08 03:34 | 42.23422 | -71.13665 | 10279 ft | 312 kts | 139° |
| 2026-05-08 03:35 | 42.21767 | -71.11618 | 10474 ft | 334 kts | 141° |
| 2026-05-08 03:35 | 42.19960 | -71.09485 | 10661 ft | 356 kts | 142° |
| 2026-05-08 03:35 | 42.16529 | -71.04699 | 11066 ft | 392 kts | 118° |
| 2026-05-08 03:36 | 42.15762 | -71.01131 | 11630 ft | 404 kts | 95° |
| 2026-05-08 03:36 | 42.15965 | -70.97351 | 12286 ft | 406 kts | 80° |
| 2026-05-08 03:36 | 42.16471 | -70.93551 | 12838 ft | 417 kts | 80° |
| 2026-05-08 03:36 | 42.16984 | -70.89666 | 13538 ft | 422 kts | 81° |
| 2026-05-08 03:37 | 42.17497 | -70.85737 | 14175 ft | 428 kts | 81° |
| 2026-05-08 03:37 | 42.18009 | -70.81745 | 14746 ft | 436 kts | 82° |
| 2026-05-08 03:37 | 42.18521 | -70.77685 | 15310 ft | 443 kts | 83° |
| 2026-05-08 03:37 | 42.19033 | -70.73550 | 15887 ft | 451 kts | 83° |
| 2026-05-08 03:38 | 42.19542 | -70.69403 | 16469 ft | 457 kts | 84° |
| 2026-05-08 03:38 | 42.20062 | -70.65135 | 17050 ft | 464 kts | 84° |
| 2026-05-08 03:38 | 42.20587 | -70.60808 | 17629 ft | 471 kts | 84° |
| 2026-05-08 03:38 | 42.21118 | -70.56418 | 18178 ft | 478 kts | 85° |
| 2026-05-08 03:39 | 42.21654 | -70.51966 | 18650 ft | 484 kts | 85° |
| 2026-05-08 03:39 | 42.22196 | -70.47463 | 19186 ft | 488 kts | 85° |
| 2026-05-08 03:39 | 42.22740 | -70.42928 | 19771 ft | 492 kts | 85° |
| 2026-05-08 03:39 | 42.23287 | -70.38362 | 20337 ft | 495 kts | 85° |
| 2026-05-08 03:40 | 42.23836 | -70.33753 | 20880 ft | 500 kts | 85° |
| 2026-05-08 03:40 | 42.24388 | -70.29101 | 21405 ft | 504 kts | 85° |
| 2026-05-08 03:40 | 42.24943 | -70.24408 | 21928 ft | 508 kts | 85° |
| 2026-05-08 03:40 | 42.25500 | -70.19683 | 22416 ft | 512 kts | 85° |
| 2026-05-08 03:41 | 42.26060 | -70.14921 | 22979 ft | 515 kts | 85° |
| 2026-05-08 03:41 | 42.26533 | -70.10125 | 23480 ft | 514 kts | 92° |
| 2026-05-08 03:41 | 42.26277 | -70.05369 | 23823 ft | 505 kts | 108° |
| 2026-05-08 03:41 | 42.25525 | -70.00736 | 24208 ft | 507 kts | 110° |
| 2026-05-08 03:42 | 42.24780 | -69.96066 | 24605 ft | 512 kts | 108° |
| 2026-05-08 03:42 | 42.24117 | -69.91323 | 25005 ft | 517 kts | 107° |
| 2026-05-08 03:42 | 42.23502 | -69.86526 | 25409 ft | 521 kts | 106° |
| 2026-05-08 03:42 | 42.23024 | -69.81656 | 25764 ft | 528 kts | 101° |
| 2026-05-08 03:43 | 42.22874 | -69.76660 | 26138 ft | 536 kts | 95° |
| 2026-05-08 03:43 | 42.22897 | -69.71614 | 26500 ft | 540 kts | 95° |
| 2026-05-08 03:43 | 42.22932 | -69.66534 | 26854 ft | 544 kts | 94° |
| 2026-05-08 03:43 | 42.22961 | -69.61415 | 27205 ft | 547 kts | 95° |
| 2026-05-08 03:44 | 42.22978 | -69.56336 | 27548 ft | 550 kts | 95° |
| 2026-05-08 03:44 | 42.22983 | -69.51160 | 27865 ft | 553 kts | 95° |
| 2026-05-08 03:44 | 42.22977 | -69.45971 | 28210 ft | 555 kts | 95° |
| 2026-05-08 03:44 | 42.22964 | -69.40754 | 28525 ft | 558 kts | 95° |
| 2026-05-08 03:45 | 42.22946 | -69.35496 | 28826 ft | 561 kts | 95° |
| 2026-05-08 03:45 | 42.22925 | -69.30219 | 29114 ft | 564 kts | 95° |
| 2026-05-08 03:45 | 42.22903 | -69.24924 | 29458 ft | 565 kts | 95° |
| 2026-05-08 03:45 | 42.22881 | -69.19633 | 29871 ft | 564 kts | 95° |
| 2026-05-08 03:46 | 42.22858 | -69.14347 | 30284 ft | 561 kts | 95° |
| 2026-05-08 03:46 | 42.22833 | -69.09103 | 30703 ft | 559 kts | 95° |
| 2026-05-08 03:46 | 42.22804 | -69.03845 | 30876 ft | 562 kts | 96° |
| 2026-05-08 03:47 | 42.22734 | -68.93265 | 30846 ft | 561 kts | 96° |
| 2026-05-08 03:47 | 42.22662 | -68.82859 | 30799 ft | 556 kts | 96° |
| 2026-05-08 03:48 | 42.22577 | -68.72443 | 30833 ft | 555 kts | 96° |
| 2026-05-08 03:48 | 42.22481 | -68.62042 | 30832 ft | 554 kts | 96° |
| 2026-05-08 03:49 | 42.22376 | -68.51615 | 30779 ft | 555 kts | 96° |
| 2026-05-08 03:49 | 42.22263 | -68.41216 | 30827 ft | 554 kts | 96° |
| 2026-05-08 03:50 | 42.22141 | -68.30872 | 30832 ft | 554 kts | 96° |
| 2026-05-08 03:50 | 42.22009 | -68.20470 | 30831 ft | 555 kts | 96° |
| 2026-05-08 03:51 | 42.21869 | -68.10061 | 30826 ft | 553 kts | 97° |
| 2026-05-08 03:51 | 42.21719 | -67.99696 | 30826 ft | 552 kts | 97° |
| 2026-05-08 03:52 | 42.21560 | -67.89337 | 30827 ft | 552 kts | 97° |
| 2026-05-08 03:52 | 42.21392 | -67.79048 | 30827 ft | 551 kts | 97° |
| 2026-05-08 03:53 | 42.21214 | -67.68707 | 30829 ft | 551 kts | 97° |
| 2026-05-08 03:53 | 42.21027 | -67.58369 | 30827 ft | 551 kts | 97° |
| 2026-05-08 03:54 | 42.20832 | -67.48047 | 30819 ft | 550 kts | 97° |
| 2026-05-08 03:54 | 42.20628 | -67.37742 | 30825 ft | 549 kts | 97° |
| 2026-05-08 03:55 | 42.20414 | -67.27446 | 30821 ft | 549 kts | 98° |
| 2026-05-08 03:55 | 42.20191 | -67.17144 | 30808 ft | 549 kts | 98° |
| 2026-05-08 03:56 | 42.19961 | -67.06865 | 30816 ft | 548 kts | 98° |
| 2026-05-08 03:56 | 42.20245 | -66.96519 | 30814 ft | 557 kts | 88° |
| 2026-05-08 03:57 | 42.21696 | -66.86213 | 30789 ft | 560 kts | 83° |
| 2026-05-08 03:57 | 42.23263 | -66.75978 | 30827 ft | 560 kts | 83° |
| 2026-05-08 03:58 | 42.24787 | -66.65661 | 30825 ft | 560 kts | 84° |
| 2026-05-08 03:58 | 42.26266 | -66.55340 | 30763 ft | 560 kts | 85° |
| 2026-05-08 03:59 | 42.27727 | -66.45021 | 30808 ft | 559 kts | 85° |
| 2026-05-08 03:59 | 42.29180 | -66.34696 | 30811 ft | 560 kts | 85° |
| 2026-05-08 04:00 | 42.30628 | -66.24360 | 30768 ft | 560 kts | 86° |
| 2026-05-08 04:00 | 42.32061 | -66.14083 | 30812 ft | 560 kts | 86° |
| 2026-05-08 04:01 | 42.33493 | -66.03717 | 30817 ft | 561 kts | 86° |
| 2026-05-08 04:01 | 42.34919 | -65.93328 | 30814 ft | 562 kts | 86° |
| 2026-05-08 04:02 | 42.36338 | -65.82945 | 30803 ft | 560 kts | 88° |
| 2026-05-08 04:02 | 42.37742 | -65.72575 | 30812 ft | 561 kts | 89° |
| 2026-05-08 04:03 | 42.39135 | -65.62198 | 30809 ft | 561 kts | 89° |
| 2026-05-08 04:03 | 42.41209 | -65.46644 | 30792 ft | 557 kts | 89° |
| 2026-05-08 04:04 | 42.42571 | -65.36347 | 30798 ft | 555 kts | 89° |
| 2026-05-08 04:04 | 42.43907 | -65.26150 | 30820 ft | 553 kts | 89° |
| 2026-05-08 04:05 | 42.45240 | -65.15890 | 30804 ft | 553 kts | 89° |
| 2026-05-08 04:05 | 42.46563 | -65.05639 | 30774 ft | 551 kts | 88° |
| 2026-05-08 04:06 | 42.47874 | -64.95429 | 30787 ft | 550 kts | 88° |
| 2026-05-08 04:06 | 42.49173 | -64.85231 | 30802 ft | 549 kts | 89° |
| 2026-05-08 04:07 | 42.50452 | -64.75099 | 30796 ft | 549 kts | 89° |
| 2026-05-08 04:07 | 42.51731 | -64.64895 | 30733 ft | 549 kts | 88° |
| 2026-05-08 04:08 | 42.53001 | -64.54688 | 30790 ft | 550 kts | 88° |
| 2026-05-08 04:08 | 42.54265 | -64.44448 | 30795 ft | 552 kts | 88° |
| 2026-05-08 04:09 | 42.55526 | -64.34163 | 30795 ft | 553 kts | 89° |
| 2026-05-08 04:09 | 42.56781 | -64.23854 | 30786 ft | 554 kts | 89° |
| 2026-05-08 04:10 | 42.58028 | -64.13533 | 30794 ft | 554 kts | 89° |
| 2026-05-08 04:10 | 42.59265 | -64.03219 | 30789 ft | 553 kts | 89° |
| 2026-05-08 04:11 | 42.60481 | -63.92996 | 30789 ft | 551 kts | 89° |
| 2026-05-08 04:11 | 42.61693 | -63.82724 | 30789 ft | 550 kts | 89° |
| 2026-05-08 04:12 | 42.62890 | -63.72470 | 30744 ft | 549 kts | 89° |
| 2026-05-08 04:12 | 42.64070 | -63.62303 | 30785 ft | 550 kts | 89° |
| 2026-05-08 04:13 | 42.65251 | -63.52028 | 30788 ft | 552 kts | 89° |
| 2026-05-08 04:13 | 42.66431 | -63.41685 | 30786 ft | 554 kts | 89° |
| 2026-05-08 04:14 | 42.67603 | -63.31330 | 30745 ft | 555 kts | 88° |
| 2026-05-08 04:14 | 42.68769 | -63.20968 | 30776 ft | 555 kts | 88° |
| 2026-05-08 04:15 | 42.69924 | -63.10600 | 30800 ft | 555 kts | 89° |
| 2026-05-08 04:15 | 42.71072 | -63.00196 | 30790 ft | 555 kts | 89° |
| 2026-05-08 04:16 | 42.72200 | -62.89892 | 30780 ft | 555 kts | 89° |
| 2026-05-08 04:16 | 42.73325 | -62.79542 | 30779 ft | 552 kts | 88° |
| 2026-05-08 04:17 | 42.74257 | -62.70887 | 30772 ft | 551 kts | 88° |
| 2026-05-08 04:17 | 42.75349 | -62.60654 | 30778 ft | 550 kts | 88° |
| 2026-05-08 04:18 | 42.76439 | -62.50350 | 30779 ft | 550 kts | 89° |
| 2026-05-08 04:18 | 42.77519 | -62.40051 | 30774 ft | 549 kts | 88° |
| 2026-05-08 04:19 | 42.78589 | -62.29779 | 30762 ft | 546 kts | 88° |
| 2026-05-08 04:19 | 42.79643 | -62.19562 | 30769 ft | 544 kts | 89° |
| 2026-05-08 04:20 | 42.80684 | -62.09368 | 30771 ft | 543 kts | 89° |
| 2026-05-08 04:20 | 42.81713 | -61.99183 | 30745 ft | 543 kts | 89° |
| 2026-05-08 04:21 | 42.82732 | -61.89018 | 30766 ft | 541 kts | 88° |
| 2026-05-08 04:21 | 42.83735 | -61.78943 | 30766 ft | 539 kts | 88° |
| 2026-05-08 04:22 | 42.84731 | -61.68828 | 30766 ft | 538 kts | 89° |
| 2026-05-08 04:22 | 42.85718 | -61.58712 | 30768 ft | 538 kts | 89° |
| 2026-05-08 04:23 | 42.86695 | -61.48607 | 30762 ft | 538 kts | 88° |
| 2026-05-08 04:23 | 42.87662 | -61.38492 | 30762 ft | 538 kts | 88° |
| 2026-05-08 04:24 | 42.88623 | -61.28360 | 30762 ft | 539 kts | 88° |
| 2026-05-08 04:24 | 42.89576 | -61.18215 | 30759 ft | 539 kts | 88° |
| 2026-05-08 04:25 | 42.90520 | -61.08064 | 30729 ft | 539 kts | 88° |
| 2026-05-08 04:25 | 42.91454 | -60.97930 | 30753 ft | 538 kts | 88° |
| 2026-05-08 04:26 | 42.92378 | -60.87807 | 30757 ft | 537 kts | 88° |
| 2026-05-08 04:26 | 42.93285 | -60.77765 | 30758 ft | 536 kts | 88° |
| 2026-05-08 04:27 | 42.94187 | -60.67665 | 30760 ft | 536 kts | 88° |
| 2026-05-08 04:27 | 42.95081 | -60.57564 | 30758 ft | 535 kts | 88° |
| 2026-05-08 04:28 | 42.95964 | -60.47486 | 30752 ft | 534 kts | 88° |
| 2026-05-08 04:28 | 42.96836 | -60.37419 | 30755 ft | 534 kts | 88° |
| 2026-05-08 04:29 | 42.97701 | -60.27340 | 30760 ft | 534 kts | 88° |
| 2026-05-08 04:29 | 42.98556 | -60.17255 | 30762 ft | 534 kts | 88° |
| 2026-05-08 04:30 | 42.99404 | -60.07178 | 30758 ft | 533 kts | 88° |
| 2026-05-08 04:30 | 43.00174 | -59.97125 | 30750 ft | 530 kts | 90° |
| 2026-05-08 04:31 | 43.00616 | -59.87085 | 30754 ft | 528 kts | 91° |
| 2026-05-08 04:31 | 43.00983 | -59.77134 | 30765 ft | 528 kts | 92° |
| 2026-05-08 04:32 | 43.01366 | -59.67118 | 30760 ft | 528 kts | 91° |
| 2026-05-08 04:32 | 43.01762 | -59.57095 | 30752 ft | 528 kts | 91° |
| 2026-05-08 04:33 | 43.02155 | -59.47071 | 30761 ft | 528 kts | 91° |
| 2026-05-08 04:33 | 43.02539 | -59.37045 | 30756 ft | 529 kts | 91° |
| 2026-05-08 04:34 | 43.02912 | -59.26996 | 30743 ft | 529 kts | 91° |
| 2026-05-08 04:34 | 43.03274 | -59.17000 | 30761 ft | 530 kts | 92° |
| 2026-05-08 04:35 | 43.03630 | -59.06926 | 30770 ft | 531 kts | 92° |